• Join FlightAware (Why Join?)
  • Login
  • US Flag 
05:07PM EDT


 

Airport Tracker/Info


-or-


 

Live Flight TrackerFlight Track Log ✈ UAL906 ✈ 26-Apr-2013 ✈ KORD - EDDM / MUC

Flight Track Log - Related Links

Times and Time Zones

All times are in EDT time to prevent confusion due to time zone crossing. See the UAL906 flight status page for this flight to view local times or setup timezone preferences in your user account.

Time Position Orientation Groundspeed Altitude Reporting Facility
EDT Latitude Longitude Course Direction KTS MPH feet Rate Location/Type
07:09PM 41.9660 -87.9240 270° West 178 205 1,000  Level FlightAware
07:09PM 41.9650 -87.9570 268° West 197 227 1,900 1,800 Climbing FlightAware
07:10PM 41.9640 -87.9980 268° West 224 258 2,800 2,160 Climbing FlightAware
07:10PM 41.9630 -88.0360 268° West 239 275 3,900 2,580 Climbing FlightAware
07:11PM 41.9630 -88.0810 270° West 250 288 5,200 2,580 Climbing FlightAware
07:11PM 41.9620 -88.1230 268° West 254 292 6,500 2,700 Climbing FlightAware
07:12PM 41.9650 -88.1600 276° West 264 304 7,700 2,820 Climbing FlightAware
07:12PM 41.9790 -88.1850 307° West 277 319 8,400 3,360 Climbing FlightAware
07:12PM 41.9990 -88.1960 338° Northwest 292 336 9,400 3,120 Climbing FlightAware
07:13PM 42.0310 -88.1890 North 303 349 10,500 2,520 Climbing FlightAware
07:13PM 42.0780 -88.1380 39° Northeast 304 350 12,400 1,620 Climbing FlightAware
07:14PM 42.1300 -88.0960 31° Northeast 354 407 12,800 1,320 Climbing FlightAware
07:15PM 42.1830 -88.0580 28° Northeast 365 420 14,200 2,160 Climbing FlightAware
07:16PM 42.2570 -88.0070 27° Northeast 380 437 15,900 2,100 Climbing FlightAware
07:16PM 42.3260 -87.9600 27° Northeast 398 458 17,200 2,040 Climbing FlightAware
07:17PM 42.4000 -87.9100 27° Northeast 407 468 18,800 2,040 Climbing FlightAware
07:18PM 42.4700 -87.8620 27° Northeast 415 478 20,100 1,860 Climbing FlightAware
07:18PM 42.5470 -87.8100 26° Northeast 422 486 21,500 1,800 Climbing FlightAware
07:19PM 42.6180 -87.7620 26° Northeast 427 491 22,700 1,680 Climbing FlightAware
07:20PM 42.6860 -87.7150 27° Northeast 433 498 23,800 1,500 Climbing FlightAware
07:20PM 42.7690 -87.6580 27° Northeast 444 511 24,900 1,380 Climbing FlightAware
07:21PM 42.8400 -87.5910 35° Northeast 463 533 25,800 1,380 Climbing FlightAware
07:22PM 42.8980 -87.5010 49° Northeast 475 547 26,800 1,320 Climbing FlightAware
07:22PM 42.9520 -87.4140 50° Northeast 479 551 27,600 540 Climbing FlightAware
07:23PM 43.0090 -87.3210 50° Northeast 479 551 27,600 1,920 Level FlightAware
07:24PM 43.0820 -87.2050 49° Northeast 466 536 30,500 2,520 Climbing FlightAware
07:25PM 43.1290 -87.1300 49° Northeast 470 541 31,000 960 Climbing FlightAware
07:25PM 43.2000 -87.0150 50° Northeast 474 545 31,900 720 Climbing FlightAware
07:26PM 43.2550 -86.9280 49° Northeast 476 548 32,100 780 Climbing FlightAware
07:27PM 43.3160 -86.8280 50° Northeast 485 558 33,000 600 Climbing FlightAware
07:27PM 43.3820 -86.7220 49° Northeast 498 573 33,000  Level FlightAware
07:28PM 43.4410 -86.6270 49° Northeast 504 580 33,000  Level FlightAware
07:29PM 43.5120 -86.5110 50° Northeast 512 589 33,000  Level FlightAware
07:30PM 43.5710 -86.4130 50° Northeast 508 585 33,000  Level FlightAware
07:30PM 43.6250 -86.3040 56° Northeast 517 595 33,000  Level FlightAware
07:31PM 43.6730 -86.1780 62° Northeast 515 593 33,000  Level FlightAware
07:32PM 43.7130 -86.0760 61° Northeast 513 590 33,000  Level FlightAware
07:32PM 43.7720 -85.9300 61° Northeast 514 592 33,000  Level FlightAware
07:33PM 43.8180 -85.8180 60° Northeast 515 593 33,000  Level FlightAware
07:34PM 43.8710 -85.6890 60° Northeast 515 593 33,000  Level FlightAware
07:34PM 43.9170 -85.5740 61° Northeast 516 594 33,000  Level FlightAware
07:35PM 43.9620 -85.4570 62° Northeast 516 594 33,000  Level FlightAware
07:36PM 44.0140 -85.3220 62° Northeast 514 592 33,000  Level FlightAware
07:37PM 44.0580 -85.2060 62° Northeast 513 590 33,000  Level FlightAware
07:37PM 44.1060 -85.0790 62° Northeast 510 587 33,000  Level FlightAware
07:38PM 44.1500 -84.9630 62° Northeast 509 586 33,000  Level FlightAware
07:39PM 44.1940 -84.8470 62° Northeast 507 583 33,000  Level FlightAware
07:39PM 44.2430 -84.7180 62° Northeast 506 582 33,000  Level FlightAware
07:40PM 44.2870 -84.6010 62° Northeast 505 581 33,000  Level FlightAware
07:41PM 44.3350 -84.4710 63° Northeast 504 580 33,000  Level FlightAware
07:41PM 44.3770 -84.3590 62° Northeast 502 578 33,000  Level FlightAware
07:42PM 44.4210 -84.2410 62° Northeast 500 575 33,000  Level FlightAware
07:43PM 44.4700 -84.1080 63° Northeast 499 574 33,000  Level FlightAware
07:44PM 44.5120 -83.9950 62° Northeast 501 577 33,000  Level FlightAware
07:44PM 44.5520 -83.8870 63° Northeast 501 577 33,000  Level FlightAware
07:45PM 44.6020 -83.7530 62° Northeast 504 580 33,000  Level FlightAware
07:46PM 44.6450 -83.6340 63° Northeast 504 580 33,000  Level FlightAware
07:46PM 44.6820 -83.5320 63° Northeast 503 579 33,000  Level FlightAware
07:47PM 44.7340 -83.3880 63° Northeast 501 577 33,000  Level FlightAware
07:48PM 44.7700 -83.2880 63° Northeast 500 575 33,000  Level FlightAware
07:48PM 44.8220 -83.1410 63° Northeast 500 575 33,000  Level FlightAware
07:49PM 44.8640 -83.0250 63° Northeast 502 578 33,000  Level FlightAware
07:50PM 44.9050 -82.9080 64° Northeast 501 577 33,000  Level FlightAware
07:51PM 44.9530 -82.7730 63° Northeast 501 577 33,000  Level FlightAware
07:51PM 44.9940 -82.6570 63° Northeast 500 575 33,000  Level FlightAware
07:52PM 45.0390 -82.5290 64° Northeast 499 574 33,000  Level FlightAware
07:53PM 45.0800 -82.4120 64° Northeast 499 574 33,000  Level FlightAware
07:53PM 45.1210 -82.2950 64° Northeast 499 574 33,000  Level FlightAware
07:54PM 45.1620 -82.1770 64° Northeast 499 574 33,000  Level FlightAware
07:55PM 45.2070 -82.0470 64° Northeast 498 573 33,000  Level FlightAware
07:55PM 45.2520 -81.9180 64° Northeast 497 572 33,000  Level FlightAware
07:56PM 45.2890 -81.8070 65° Northeast 497 572 33,000  Level FlightAware
07:57PM 45.3300 -81.6870 64° Northeast 497 572 33,000  Level FlightAware
07:58PM 45.3740 -81.5540 65° Northeast 496 571 33,000  Level FlightAware
07:58PM 45.4160 -81.4290 64° Northeast 495 570 33,000  Level FlightAware
07:59PM 45.4540 -81.3180 64° Northeast 495 570 33,000  Level FlightAware
08:00PM 45.4910 -81.2080 64° Northeast 494 568 33,000  Level FlightAware
08:00PM 45.5340 -81.0800 64° Northeast 494 568 33,000  Level FlightAware
08:01PM 45.5790 -80.9420 65° Northeast 493 567 33,000  Level FlightAware
08:02PM 45.6150 -80.8330 65° Northeast 493 567 33,000  Level FlightAware
08:02PM 45.6610 -80.6930 65° Northeast 493 567 33,000  Level FlightAware
08:03PM 45.6950 -80.5910 64° Northeast 493 567 33,000  Level FlightAware
08:04PM 45.7390 -80.4570 65° Northeast 493 567 33,000  Level FlightAware
08:05PM 45.7820 -80.3230 65° Northeast 492 566 33,000  Level FlightAware
08:05PM 45.8170 -80.2130 65° Northeast 492 566 33,000  Level FlightAware
08:06PM 45.8540 -80.0970 65° Northeast 492 566 33,000  Level FlightAware
08:07PM 45.9000 -79.9520 65° Northeast 491 565 33,000  Level FlightAware
08:07PM 45.9370 -79.8350 66° East 492 566 33,000  Level FlightAware
08:08PM 45.9770 -79.7070 66° East 493 567 33,000  Level FlightAware
08:09PM 46.0140 -79.5870 66° East 493 567 33,000  Level FlightAware
08:09PM 46.0580 -79.4460 66° East 491 565 33,000  Level FlightAware
08:10PM 46.0950 -79.3280 66° East 492 566 33,000  Level FlightAware
08:11PM 46.1320 -79.2100 66° East 493 567 33,000  Level FlightAware
08:12PM 46.1710 -79.0800 67° East 493 567 33,000  Level FlightAware
08:12PM 46.2100 -78.9520 66° East 493 567 33,000  Level FlightAware
08:13PM 46.2520 -78.8160 66° East 493 567 33,000  Level FlightAware
08:14PM 46.2870 -78.7000 66° East 494 568 33,000  Level FlightAware
08:14PM 46.3250 -78.5730 67° East 494 568 33,000  Level FlightAware
08:15PM 46.3650 -78.4390 67° East 494 568 33,000  Level FlightAware
08:16PM 46.3950 -78.3340 67° East 494 568 33,000  Level FlightAware
08:16PM 46.4250 -78.2370 66° East 494 568 33,000  Level FlightAware
08:17PM 46.4650 -78.1080 66° East 494 568 33,000  Level FlightAware
08:18PM 46.4960 -78.0050 66° East 494 568 33,000  Level FlightAware
08:18PM 46.5280 -77.9020 66° East 494 568 33,000  Level FlightAware
08:19PM 46.5600 -77.7980 66° East 494 568 33,000  Level FlightAware
08:20PM 46.5910 -77.6950 66° East 494 568 33,000  Level FlightAware
08:21PM 46.6310 -77.5660 66° East 494 568 33,000  Level FlightAware
08:21PM 46.6620 -77.4620 66° East 494 568 33,000  Level FlightAware
08:22PM 46.6940 -77.3590 66° East 494 568 33,000  Level FlightAware
08:23PM 46.7260 -77.2550 66° East 494 568 33,000  Level FlightAware
08:23PM 46.7570 -77.1520 66° East 494 568 33,000  Level FlightAware
08:24PM 46.7890 -77.0480 66° East 494 568 33,000  Level FlightAware
08:25PM 46.8280 -76.9190 66° East 494 568 33,000  Level FlightAware
08:25PM 46.8600 -76.8150 66° East 494 568 33,000  Level FlightAware
08:29PM 47.0690 -75.9250 71° East 491 565 33,000  Level FlightAware
08:29PM 47.1020 -75.8010 69° East 491 565 33,000  Level FlightAware
08:30PM 47.1460 -75.6280 69° East 491 565 33,000  Level FlightAware
08:31PM 47.1890 -75.4620 69° East 490 564 33,000  Level FlightAware
08:32PM 47.2230 -75.3310 69° East 489 563 33,000  Level FlightAware
08:33PM 47.2510 -75.2250 69° East 489 563 33,000  Level FlightAware
08:33PM 47.2790 -75.1190 69° East 489 563 33,000  Level FlightAware
08:34PM 47.3290 -74.9130 70° East 488 562 33,000  Level FlightAware
08:35PM 47.3600 -74.7890 70° East 490 564 33,000  Level FlightAware
08:35PM 47.3940 -74.6490 70° East 489 563 33,000  Level FlightAware
08:36PM 47.4250 -74.5250 70° East 489 563 33,000  Level FlightAware
08:37PM 47.4560 -74.3990 70° East 488 562 33,000  Level FlightAware
08:37PM 47.4850 -74.2810 70° East 487 560 33,000  Level FlightAware
08:38PM 47.5210 -74.1340 70° East 486 559 33,000  Level FlightAware
08:39PM 47.5550 -73.9910 71° East 486 559 33,000  Level FlightAware
08:40PM 47.5860 -73.8690 69° East 481 554 33,000  Level FlightAware
08:40PM 47.6400 -73.7480 56° Northeast 468 539 33,000  Level FlightAware
08:41PM 47.6990 -73.6520 48° Northeast 469 540 33,000  Level FlightAware
08:42PM 47.7570 -73.5570 48° Northeast 468 539 33,000  Level FlightAware
08:42PM 47.8220 -73.4510 48° Northeast 467 537 33,000  Level FlightAware
08:43PM 47.8790 -73.3560 48° Northeast 467 537 33,000  Level FlightAware
08:44PM 47.9360 -73.2620 48° Northeast 467 537 33,000  Level FlightAware
08:45PM 48.0010 -73.1540 48° Northeast 466 536 33,000  Level FlightAware
08:45PM 48.0580 -73.0590 48° Northeast 466 536 33,000  Level FlightAware
08:46PM 48.1230 -72.9490 48° Northeast 466 536 33,000  Level FlightAware
08:47PM 48.1800 -72.8520 49° Northeast 466 536 33,000  Level FlightAware
08:47PM 48.2370 -72.7560 48° Northeast 466 536 33,000  Level FlightAware
08:48PM 48.3010 -72.6480 48° Northeast 466 536 33,000  Level FlightAware
08:49PM 48.3570 -72.5510 49° Northeast 466 536 33,000  Level FlightAware
08:50PM 48.4340 -72.4200 48° Northeast 465 535 33,000  Level FlightAware
08:50PM 48.4910 -72.3220 49° Northeast 464 534 33,000  Level FlightAware
08:51PM 48.5530 -72.2150 49° Northeast 465 535 33,000  Level FlightAware
08:52PM 48.6100 -72.1190 48° Northeast 465 535 33,000  Level FlightAware
08:53PM 48.7110 -71.9470 48° Northeast 467 537 33,000  Level FlightAware
08:54PM 48.7850 -71.8160 49° Northeast 468 539 33,000  Level FlightAware
08:55PM 48.8950 -71.6230 49° Northeast 470 541 33,000  Level FlightAware
08:56PM 49.0030 -71.4340 49° Northeast 470 541 33,000  Level FlightAware
08:57PM 49.0750 -71.3050 50° Northeast 470 541 33,000  Level FlightAware
08:58PM 49.1360 -71.1970 49° Northeast 471 542 33,000  Level FlightAware
08:58PM 49.1830 -71.1130 49° Northeast 471 542 33,000  Level FlightAware
08:59PM 49.2400 -71.0120 49° Northeast 471 542 33,000  Level FlightAware
09:00PM 49.2890 -70.9270 49° Northeast 471 542 33,000  Level FlightAware
09:01PM 49.3370 -70.8410 49° Northeast 471 542 33,000  Level FlightAware
09:01PM 49.3980 -70.7340 49° Northeast 471 542 33,000  Level FlightAware
09:02PM 49.4470 -70.6480 49° Northeast 471 542 33,000  Level FlightAware
09:03PM 49.4950 -70.5620 49° Northeast 471 542 33,000  Level FlightAware
09:03PM 49.5440 -70.4750 49° Northeast 471 542 33,000  Level FlightAware
09:04PM 49.6050 -70.3680 49° Northeast 471 542 33,000  Level FlightAware
09:05PM 49.6530 -70.2810 50° Northeast 471 542 33,000  Level FlightAware
09:06PM 49.7020 -70.1950 49° Northeast 471 542 33,000  Level FlightAware
09:06PM 49.7510 -70.1080 49° Northeast 471 542 33,000  Level FlightAware
09:07PM 49.7990 -70.0220 49° Northeast 471 542 33,000  Level FlightAware
09:08PM 49.8480 -69.9350 49° Northeast 471 542 33,000  Level FlightAware
09:08PM 49.9090 -69.8270 49° Northeast 471 542 33,000  Level FlightAware
09:09PM 50.0667 -69.4667 49° Northeast 470 541 33,000  Level Montreal Center
09:10PM 50.1667 -69.2833 50° Northeast 480 552 33,000  Level Montreal Center
09:11PM 50.2333 -69.1167 58° Northeast 480 552 33,000  Level Montreal Center
09:12PM 50.3333 -68.9500 47° Northeast 480 552 33,000  Level Montreal Center
09:13PM 50.4000 -68.8000 55° Northeast 480 552 33,000  Level Montreal Center
09:14PM 50.5000 -68.6333 47° Northeast 480 552 33,000  Level Montreal Center
09:15PM 50.5667 -68.4667 58° Northeast 480 552 33,000  Level Montreal Center
09:16PM 50.6667 -68.3167 44° Northeast 480 552 33,000  Level Montreal Center
09:17PM 50.7500 -68.1333 54° Northeast 480 552 33,000  Level Montreal Center
09:18PM 50.8167 -67.9667 58° Northeast 480 552 33,000  Level Montreal Center
09:19PM 50.9167 -67.7833 49° Northeast 480 552 33,000  Level Montreal Center
09:20PM 50.9833 -67.6333 55° Northeast 480 552 33,000  Level Montreal Center
09:21PM 51.0667 -67.4667 51° Northeast 480 552 33,000  Level Montreal Center
09:22PM 51.1667 -67.2833 49° Northeast 480 552 33,000  Level Montreal Center
09:23PM 51.2333 -67.1000 60° Northeast 490 564 33,000  Level Montreal Center
09:24PM 51.3167 -66.9333 51° Northeast 490 564 33,000  Level Montreal Center
09:25PM 51.4000 -66.7667 51° Northeast 490 564 33,000  Level Montreal Center
09:26PM 51.5000 -66.5667 51° Northeast 500 575 33,000  Level Montreal Center
09:27PM 51.5833 -66.4167 48° Northeast 500 575 33,000  Level Montreal Center
09:28PM 51.6667 -66.2333 54° Northeast 500 575 33,000  Level Montreal Center
09:29PM 51.7500 -66.0500 54° Northeast 500 575 33,000  Level Montreal Center
09:30PM 51.8500 -65.8833 46° Northeast 510 587 33,000  Level Montreal Center
09:31PM 51.9333 -65.7000 54° Northeast 510 587 33,000  Level Montreal Center
09:32PM 52.0167 -65.5167 54° Northeast 510 587 33,000  Level Montreal Center
09:32PM 52.0500 -65.4500 51° Northeast 510 587 33,000  Level Moncton Center
09:33PM 52.1000 -65.3667 46° Northeast 510 587 33,000  Level Gander Center
09:34PM 52.2000 -65.1833 48° Northeast 510 587 33,000  Level Gander Center
09:35PM 52.2833 -65.0000 53° Northeast 510 587 33,000  Level Gander Center
09:36PM 52.3500 -64.8167 59° Northeast 520 598 33,000  Level Gander Center
09:37PM 52.4667 -64.6333 44° Northeast 520 598 33,000  Level Gander Center
09:38PM 52.5333 -64.4167 63° Northeast 520 598 33,000  Level Gander Center
09:39PM 52.6167 -64.2500 50° Northeast 520 598 33,000  Level Gander Center
09:40PM 52.7167 -64.0500 50° Northeast 520 598 33,000  Level Gander Center
09:41PM 52.8000 -63.8500 55° Northeast 530 610 33,000  Level Gander Center
09:42PM 52.8833 -63.6667 53° Northeast 530 610 33,000  Level Gander Center
09:43PM 52.9667 -63.4833 53° Northeast 530 610 33,000  Level Gander Center
09:44PM 53.0667 -63.2500 54° Northeast 530 610 33,000  Level Gander Center
09:45PM 53.1667 -63.0667 48° Northeast 540 621 33,000  Level Gander Center
09:46PM 53.2500 -62.8500 57° Northeast 550 633 33,000  Level Gander Center
09:47PM 53.3333 -62.6333 57° Northeast 550 633 33,000 120 Level Gander Center
09:48PM 53.4167 -62.4333 55° Northeast 560 644 33,300 900 Climbing Gander Center
09:49PM 53.5167 -62.2333 50° Northeast 560 644 34,800 840 Climbing Gander Center
09:50PM 53.6167 -62.0167 52° Northeast 550 633 35,000 60 Climbing Gander Center
09:51PM 53.7000 -61.8167 55° Northeast 530 610 35,000  Level Gander Center
09:52PM 53.7833 -61.6000 57° Northeast 540 621 35,000  Level Gander Center
09:53PM 53.8667 -61.4000 55° Northeast 550 633 35,000  Level Gander Center
09:54PM 53.9333 -61.2500 53° Northeast 560 644 35,000  Level Gander Center
09:55PM 54.0167 -61.0333 57° Northeast 560 644 35,000  Level Gander Center
09:55PM 54.0500 -60.9333 60° Northeast 570 656 35,000  Level Gander Center
09:56PM 54.1333 -60.7167 57° Northeast 570 656 35,000  Level Gander Center
09:57PM 54.2000 -60.5667 53° Northeast 570 656 35,000  Level Gander Center
09:58PM 54.2833 -60.3667 54° Northeast 570 656 35,000  Level Gander Center
09:58PM 54.3167 -60.2833 56° Northeast 580 667 35,000  Level Gander Center
09:59PM 54.4000 -60.0500 58° Northeast 580 667 35,000  Level Gander Center
10:00PM 54.4833 -59.8167 58° Northeast 580 667 35,000  Level Gander Center
10:01PM 54.5667 -59.5833 58° Northeast 580 667 35,000  Level Gander Center
10:02PM 54.6667 -59.3500 53° Northeast 580 667 35,000  Level Gander Center
10:03PM 54.7500 -59.1167 58° Northeast 580 667 35,000  Level Gander Center
10:04PM 54.8500 -58.8667 55° Northeast 580 667 35,000  Level Gander Center
10:05PM 54.9167 -58.6333 63° Northeast 580 667 35,000  Level Gander Center
10:06PM 54.9833 -58.4833 52° Northeast 580 667 35,000  Level Gander Center
10:07PM 55.0667 -58.2500 58° Northeast 580 667 35,000  Level Gander Center
10:07PM 55.1000 -58.1500 60° Northeast 580 667 35,000  Level Gander Center
10:08PM 55.1500 -58.0000 60° Northeast 570 656 35,000  Level Gander Center
10:08PM 55.1833 -57.9500 41° Northeast 570 656 35,000  Level Gander Center
10:09PM 55.2667 -57.7000 60° Northeast 570 656 35,000  Level Gander Center
10:10PM 55.3500 -57.4667 58° Northeast 570 656 35,000  Level Gander Center
10:11PM 55.4333 -57.2167 59° Northeast 570 656 35,000  Level Gander Center
10:12PM 55.5167 -56.9667 59° Northeast 570 656 35,000  Level Gander Center
10:13PM 55.5833 -56.7333 63° Northeast 570 656 35,000  Level Gander Center
10:14PM 55.6500 -56.4500 67° East 570 656 35,000  Level Gander Center
10:15PM 55.7167 -56.2167 63° Northeast 570 656 35,000  Level Gander Center
10:16PM 55.7667 -55.9333 72° East 570 656 35,000  Level Gander Center
10:17PM 55.8333 -55.6833 65° Northeast 570 656 35,000  Level Gander Center
10:18PM 55.8833 -55.4500 69° East 570 656 35,000  Level Gander Center
10:19PM 55.9333 -55.1667 72° East 570 656 35,000  Level Gander Center
10:20PM 56.0000 -54.9500 61° Northeast 570 656 35,000  Level Gander Center
10:21PM 56.0667 -54.6667 67° East 570 656 35,000  Level Gander Center
10:22PM 56.0833 -54.5167 79° East 570 656 35,000  Level Gander Center
10:22PM 56.1167 -54.3833 66° East 570 656 35,000  Level Gander Center
10:23PM 56.1667 -54.1333 70° East 570 656 35,000  Level Gander Center
10:24PM 56.2167 -53.8500 72° East 570 656 35,000  Level Gander Center
10:25PM 56.2667 -53.6000 70° East 560 644 35,000  Level Gander Center
10:26PM 56.3167 -53.3167 72° East 570 656 35,000  Level Gander Center
10:27PM 56.4000 -53.0667 59° Northeast 280 322 35,000  Level Gander Center
10:28PM 56.4500 -52.6833 77° East 620 713 35,000  Level Gander Center
10:30PM 56.5098 -52.4085 68° East  Level FlightAware Approximate
10:37PM 56.8416 -50.8104 69° East  Level FlightAware Approximate
10:38PM 56.8874 -50.5798 70° East  Level FlightAware Approximate
10:39PM 56.9327 -50.3486 70° East  Level FlightAware Approximate
10:40PM 56.9776 -50.1169 70° East  Level FlightAware Approximate
10:41PM 57.0269 -49.8871 66° East  Level FlightAware Approximate
10:42PM 57.0804 -49.6610 66° East  Level FlightAware Approximate
10:43PM 57.1335 -49.4343 67° East  Level FlightAware Approximate
10:44PM 57.1862 -49.2070 67° East  Level FlightAware Approximate
10:45PM 57.2385 -48.9790 67° East  Level FlightAware Approximate
10:46PM 57.2904 -48.7503 67° East  Level FlightAware Approximate
10:47PM 57.3441 -48.5229 65° Northeast  Level FlightAware Approximate
10:48PM 57.3998 -48.2967 65° Northeast  Level FlightAware Approximate
10:49PM 57.4550 -48.0698 66° East  Level FlightAware Approximate
10:50PM 57.5099 -47.8422 66° East  Level FlightAware Approximate
10:51PM 57.5644 -47.6139 66° East  Level FlightAware Approximate
10:52PM 57.6184 -47.3849 66° East  Level FlightAware Approximate
10:53PM 57.6712 -47.1547 67° East  Level FlightAware Approximate
10:54PM 57.7223 -46.9227 67° East  Level FlightAware Approximate
10:55PM 57.7730 -46.6901 68° East  Level FlightAware Approximate
10:56PM 57.8232 -46.4568 68° East  Level FlightAware Approximate
10:57PM 57.8731 -46.2229 68° East  Level FlightAware Approximate
10:58PM 57.9225 -45.9884 68° East  Level FlightAware Approximate
10:59PM 57.9714 -45.7532 68° East  Level FlightAware Approximate
11:00PM 58.0200 -45.5173 69° East  Level FlightAware Approximate
11:01PM 58.0681 -45.2808 69° East  Level FlightAware Approximate
11:02PM 58.1157 -45.0437 69° East  Level FlightAware Approximate
11:03PM 58.1629 -44.8060 69° East  Level FlightAware Approximate
11:04PM 58.2097 -44.5676 69° East  Level FlightAware Approximate
11:05PM 58.2560 -44.3286 70° East  Level FlightAware Approximate
11:06PM 58.3019 -44.0890 70° East  Level FlightAware Approximate
11:07PM 58.3473 -43.8488 70° East  Level FlightAware Approximate
11:08PM 58.3923 -43.6079 70° East  Level FlightAware Approximate
11:09PM 58.4368 -43.3665 71° East  Level FlightAware Approximate
11:10PM 58.4809 -43.1244 71° East  Level FlightAware Approximate
11:11PM 58.5245 -42.8817 71° East  Level FlightAware Approximate
11:12PM 58.5677 -42.6384 71° East  Level FlightAware Approximate
11:13PM 58.6104 -42.3945 71° East  Level FlightAware Approximate
11:14PM 58.6526 -42.1501 72° East  Level FlightAware Approximate
11:15PM 58.6944 -41.9050 72° East  Level FlightAware Approximate
11:16PM 58.7356 -41.6594 72° East  Level FlightAware Approximate
11:17PM 58.7765 -41.4132 72° East  Level FlightAware Approximate
11:18PM 58.8168 -41.1664 72° East  Level FlightAware Approximate
11:19PM 58.8567 -40.9190 73° East  Level FlightAware Approximate
11:20PM 58.8961 -40.6710 73° East  Level FlightAware Approximate
11:21PM 58.9351 -40.4225 73° East  Level FlightAware Approximate
11:22PM 58.9735 -40.1735 73° East  Level FlightAware Approximate
11:23PM 59.0027 -39.9208 86° East  Level FlightAware Approximate
11:24PM 59.0112 -39.6610 86° East  Level FlightAware Approximate
11:25PM 59.0192 -39.4010 86° East  Level FlightAware Approximate
11:26PM 59.0266 -39.1409 87° East  Level FlightAware Approximate
11:27PM 59.0336 -38.8807 87° East  Level FlightAware Approximate
11:28PM 59.0400 -38.6204 87° East  Level FlightAware Approximate
11:29PM 59.0459 -38.3600 87° East  Level FlightAware Approximate
11:30PM 59.0513 -38.0995 88° East  Level FlightAware Approximate
11:31PM 59.0561 -37.8389 88° East  Level FlightAware Approximate
11:32PM 59.0605 -37.5783 88° East  Level FlightAware Approximate
11:33PM 59.0643 -37.3176 88° East  Level FlightAware Approximate
11:34PM 59.0680 -37.0568 88° East  Level FlightAware Approximate
11:35PM 59.0723 -36.7961 88° East  Level FlightAware Approximate
11:36PM 59.0761 -36.5353 88° East  Level FlightAware Approximate
11:37PM 59.0794 -36.2745 88° East  Level FlightAware Approximate
11:38PM 59.0821 -36.0136 89° East  Level FlightAware Approximate
11:39PM 59.0844 -35.7527 89° East  Level FlightAware Approximate
11:40PM 59.0860 -35.4917 89° East  Level FlightAware Approximate
11:41PM 59.0872 -35.2307 89° East  Level FlightAware Approximate
11:42PM 59.0879 -34.9697 90° East  Level FlightAware Approximate
11:43PM 59.0880 -34.7087 90° East  Level FlightAware Approximate
11:44PM 59.0876 -34.4477 90° East  Level FlightAware Approximate
11:45PM 59.0867 -34.1867 90° East  Level FlightAware Approximate
11:46PM 59.0852 -33.9258 91° East  Level FlightAware Approximate
11:47PM 59.0832 -33.6648 91° East  Level FlightAware Approximate
11:48PM 59.0807 -33.4039 91° East  Level FlightAware Approximate
11:49PM 59.0777 -33.1430 91° East  Level FlightAware Approximate
11:50PM 59.0742 -32.8822 91° East  Level FlightAware Approximate
11:51PM 59.0701 -32.6215 92° East  Level FlightAware Approximate
11:52PM 59.0655 -32.3608 92° East  Level FlightAware Approximate
11:53PM 59.0604 -32.1002 92° East  Level FlightAware Approximate
11:54PM 59.0548 -31.8396 92° East  Level FlightAware Approximate
11:55PM 59.0486 -31.5792 93° East  Level FlightAware Approximate
11:56PM 59.0419 -31.3188 93° East  Level FlightAware Approximate
11:57PM 59.0347 -31.0586 93° East  Level FlightAware Approximate
11:58PM 59.0270 -30.7984 93° East  Level FlightAware Approximate
11:59PM 59.0187 -30.5384 93° East  Level FlightAware Approximate
12:00AM 59.0100 -30.2785 94° East  Level FlightAware Approximate
12:01AM 59.0007 -30.0188 94° East  Level FlightAware Approximate
12:02AM 58.9854 -29.7603 97° East  Level FlightAware Approximate
12:03AM 58.9692 -29.5020 97° East  Level FlightAware Approximate
12:04AM 58.9524 -29.2440 97° East  Level FlightAware Approximate
12:05AM 58.9351 -28.9863 97° East  Level FlightAware Approximate
12:06AM 58.9175 -28.7311 98° East  Level FlightAware Approximate
12:07AM 58.8994 -28.4762 98° East  Level FlightAware Approximate
12:08AM 58.8808 -28.2216 98° East  Level FlightAware Approximate
12:09AM 58.8617 -27.9672 98° East  Level FlightAware Approximate
12:10AM 58.8420 -27.7132 98° East  Level FlightAware Approximate
12:11AM 58.8219 -27.4594 99° East  Level FlightAware Approximate
12:12AM 58.8013 -27.2059 99° East  Level FlightAware Approximate
12:13AM 58.7802 -26.9527 99° East  Level FlightAware Approximate
12:14AM 58.7586 -26.6999 99° East  Level FlightAware Approximate
12:15AM 58.7365 -26.4473 99° East  Level FlightAware Approximate
12:16AM 58.7139 -26.1951 100° East  Level FlightAware Approximate
12:17AM 58.6908 -25.9432 100° East  Level FlightAware Approximate
12:18AM 58.6673 -25.6917 100° East  Level FlightAware Approximate
12:19AM 58.6432 -25.4405 100° East  Level FlightAware Approximate
12:20AM 58.6187 -25.1896 101° East  Level FlightAware Approximate
12:21AM 58.5936 -24.9391 101° East  Level FlightAware Approximate
12:22AM 58.5681 -24.6890 101° East  Level FlightAware Approximate
12:23AM 58.5421 -24.4392 101° East  Level FlightAware Approximate
12:24AM 58.5156 -24.1898 101° East  Level FlightAware Approximate
12:25AM 58.4892 -23.9406 101° East  Level FlightAware Approximate
12:26AM 58.4622 -23.6917 102° East  Level FlightAware Approximate
12:27AM 58.4348 -23.4433 102° East  Level FlightAware Approximate
12:28AM 58.4069 -23.1952 102° East  Level FlightAware Approximate
12:29AM 58.3785 -22.9475 102° East  Level FlightAware Approximate
12:30AM 58.3497 -22.7002 102° East  Level FlightAware Approximate
12:31AM 58.3203 -22.4534 103° East  Level FlightAware Approximate
12:32AM 58.2905 -22.2069 103° East  Level FlightAware Approximate
12:33AM 58.2603 -21.9609 103° East  Level FlightAware Approximate
12:34AM 58.2295 -21.7152 103° East  Level FlightAware Approximate
12:35AM 58.1983 -21.4701 103° East  Level FlightAware Approximate
12:36AM 58.1666 -21.2253 104° East  Level FlightAware Approximate
12:37AM 58.1344 -20.9805 104° East  Level FlightAware Approximate
12:38AM 58.1017 -20.7361 104° East  Level FlightAware Approximate
12:39AM 58.0685 -20.4922 104° East  Level FlightAware Approximate
12:40AM 58.0349 -20.2488 105° East  Level FlightAware Approximate
12:41AM 58.0008 -20.0058 105° East  Level FlightAware Approximate
12:42AM 57.9810 -19.7575 98° East  Level FlightAware Approximate
12:43AM 57.9610 -19.5093 99° East  Level FlightAware Approximate
12:44AM 57.9406 -19.2614 99° East  Level FlightAware Approximate
12:45AM 57.9197 -19.0137 99° East  Level FlightAware Approximate
12:46AM 57.8983 -18.7664 99° East  Level FlightAware Approximate
12:47AM 57.8764 -18.5193 99° East  Level FlightAware Approximate
12:48AM 57.8540 -18.2726 100° East  Level FlightAware Approximate
12:49AM 57.8312 -18.0261 100° East  Level FlightAware Approximate
12:50AM 57.8079 -17.7800 100° East  Level FlightAware Approximate
12:51AM 57.7841 -17.5342 100° East  Level FlightAware Approximate
12:52AM 57.7598 -17.2882 100° East  Level FlightAware Approximate
12:53AM 57.7350 -17.0426 101° East  Level FlightAware Approximate
12:54AM 57.7097 -16.7973 101° East  Level FlightAware Approximate
12:55AM 57.6840 -16.5524 101° East  Level FlightAware Approximate
12:56AM 57.6577 -16.3078 101° East  Level FlightAware Approximate
12:57AM 57.6311 -16.0635 101° East  Level FlightAware Approximate
12:58AM 57.6039 -15.8196 102° East  Level FlightAware Approximate
12:59AM 57.5763 -15.5761 102° East  Level FlightAware Approximate
01:00AM 57.5482 -15.3330 102° East  Level FlightAware Approximate
01:01AM 57.5196 -15.0902 102° East  Level FlightAware Approximate
01:02AM 57.4906 -14.8478 102° East  Level FlightAware Approximate
01:03AM 57.4611 -14.6059 103° East  Level FlightAware Approximate
01:03AM 56.7020 -11.7310 103° East 473 544 37,000  Level FlightAware
01:04AM 57.4312 -14.3643 103° East  Level FlightAware Approximate
01:04AM 56.6850 -11.5740 101° East 473 544 37,000  Level FlightAware
01:04AM 56.6700 -11.4270 100° East 473 544 37,000  Level FlightAware
01:05AM 56.6500 -11.2430 101° East 472 543 37,000  Level FlightAware
01:06AM 56.6330 -11.0860 101° East 472 543 37,000  Level FlightAware
01:07AM 56.6140 -10.9110 101° East 470 541 37,000  Level FlightAware
01:07AM 56.5960 -10.7520 102° East 468 539 37,000  Level FlightAware
01:09AM 56.5540 -10.3830 102° East 466 536 37,000  Level FlightAware
01:10AM 56.5320 -10.2280 104° East 470 541 37,000  Level FlightAware
01:10AM 56.5080 -10.0730 106° East 471 542 37,000  Level FlightAware
01:11AM 56.4820 -9.9010 105° East 475 547 37,000  Level FlightAware
01:12AM 56.4570 -9.7460 106° East 473 544 37,000  Level FlightAware
01:12AM 56.4290 -9.5800 107° East 471 542 37,000  Level FlightAware
01:13AM 56.4040 -9.4290 107° East 472 543 37,000  Level FlightAware
01:14AM 56.3780 -9.2700 106° East 470 541 37,000  Level FlightAware
01:15AM 56.3500 -9.1000 106° East 471 542 37,000 -1,380 Level FlightAware
01:15AM 56.3237 -8.9990 106° East 464 534 35,500 -2,280 Descending FlightAware UK
01:15AM 56.3125 -8.9308 106° East 460 529 35,500 4,980 Level FlightAware UK
01:15AM 56.3280 -8.9610 106° East 472 543 37,000 -360 Climbing FlightAware
01:16AM 56.3011 -8.8633 106° East 460 529 35,400 -2,700 Descending FlightAware UK
01:16AM 56.2898 -8.7956 107° East 460 529 35,400 4,320 Level FlightAware UK
01:16AM 56.3030 -8.8100 107° East 472 543 37,000  Climbing FlightAware
01:16AM 56.2747 -8.7046 107° East 460 529 35,400 -2,400 Descending FlightAware UK
01:17AM 56.2633 -8.6368 107° East 462 532 35,500 3,840 Climbing FlightAware UK
01:17AM 56.2750 -8.6400 107° East 470 541 37,000  Climbing FlightAware
01:17AM 56.2480 -8.5465 107° East 462 532 35,500 -2,580 Descending FlightAware UK
01:17AM 56.2363 -8.4789 107° East 462 532 35,500 3,900 Level FlightAware UK
01:17AM 56.2500 -8.4910 107° East 472 543 37,000  Climbing FlightAware
01:18AM 56.2208 -8.3888 107° East 462 532 35,500 -2,460 Descending FlightAware UK
01:18AM 56.2091 -8.3213 107° East 462 532 35,500 3,420 Level FlightAware UK
01:18AM 56.2210 -8.3210 107° East 472 543 37,000  Climbing FlightAware
01:18AM 56.1935 -8.2310 107° East 460 529 35,500 -2,700 Descending FlightAware UK
01:19AM 56.1816 -8.1624 107° East 460 529 35,500 3,720 Level FlightAware UK
01:19AM 56.1960 -8.1710 107° East 473 544 37,000  Climbing FlightAware
01:19AM 56.1656 -8.0721 107° East 462 532 35,500 -2,520 Descending FlightAware UK
01:19AM 56.1537 -8.0041 107° East 462 532 35,500 3,300 Level FlightAware UK
01:19AM 56.1660 -8.0030 107° East 478 550 37,000  Climbing FlightAware
01:20AM 56.1374 -7.9137 107° East 468 539 35,500 -2,760 Descending FlightAware UK
01:20AM 56.1251 -7.8458 108° East 466 536 35,500 3,600 Level FlightAware UK
01:20AM 56.1400 -7.8530 108° East 480 552 37,000  Climbing FlightAware
01:20AM 56.1087 -7.7546 108° East 470 541 35,500 -2,580 Descending FlightAware UK
01:21AM 56.0967 -7.6873 108° East 468 539 35,500 3,900 Level FlightAware UK
01:21AM 56.1130 -7.7000 108° East 480 552 37,000 -300 Climbing FlightAware
01:21AM 56.0803 -7.5967 108° East 466 536 35,400 -2,460 Descending FlightAware UK
01:21AM 56.0679 -7.5280 108° East 466 536 35,500 3,660 Climbing FlightAware UK
01:22AM 56.0820 -7.5280 108° East 481 554 37,000  Climbing FlightAware
01:22AM 56.0517 -7.4373 108° East 470 541 35,500 -2,700 Descending FlightAware UK
01:22AM 56.0395 -7.3693 108° East 472 543 35,500 3,720 Level FlightAware UK
01:22AM 56.0570 -7.3820 108° East 482 555 37,000  Climbing FlightAware
01:23AM 56.0228 -7.2789 108° East 474 545 35,500 -2,520 Descending FlightAware UK
01:23AM 56.0104 -7.2111 108° East 472 543 35,500 4,080 Level FlightAware UK
01:23AM 56.0290 -7.2280 108° East 481 554 37,000  Climbing FlightAware
01:23AM 55.9937 -7.1208 108° East 472 543 35,500 -2,400 Descending FlightAware UK
01:24AM 55.9813 -7.0532 108° East 472 543 35,500 3,600 Level FlightAware UK
01:24AM 55.9980 -7.0560 108° East 479 551 37,000  Climbing FlightAware
01:24AM 55.9653 -6.9632 108° East 474 545 35,500 -2,580 Descending FlightAware UK
01:24AM 55.9535 -6.8957 107° East 472 543 35,500 3,900 Level FlightAware UK
01:24AM 55.9720 -6.9080 107° East 476 548 37,000  Climbing FlightAware
01:25AM 55.9376 -6.8050 107° East 472 543 35,500 -2,640 Descending FlightAware UK
01:25AM 55.9257 -6.7385 108° East 468 539 35,400 3,420 Descending FlightAware UK
01:25AM 55.9420 -6.7360 108° East 479 551 37,000 240 Climbing FlightAware
01:25AM 55.9095 -6.6488 108° East 466 536 35,500 -2,700 Descending FlightAware UK
01:26AM 55.8973 -6.5816 108° East 468 539 35,500 3,720 Level FlightAware UK
01:26AM 55.9160 -6.5880 108° East 481 554 37,000  Climbing FlightAware
01:26AM 55.8809 -6.4918 108° East 470 541 35,500 -2,520 Descending FlightAware UK
01:26AM 55.8682 -6.4236 108° East 470 541 35,500 4,080 Level FlightAware UK
01:26AM 55.8890 -6.4420 108° East 480 552 37,000  Climbing FlightAware
01:27AM 55.8512 -6.3345 108° East 470 541 35,500 -2,400 Descending FlightAware UK
01:27AM 55.8377 -6.2674 110° East 466 536 35,500 4,500 Level FlightAware UK
01:27AM 55.8590 -6.2860 110° East 483 556 37,000  Climbing FlightAware
01:27AM 55.8237 -6.2003 110° East 468 539 35,500 -2,700 Descending FlightAware UK
01:28AM 55.8100 -6.1326 110° East 474 545 35,500 3,060 Level FlightAware UK
01:28AM 55.8240 -6.1080 110° East 483 556 37,000  Climbing FlightAware
01:28AM 55.7880 -6.0208 110° East 474 545 35,500 -2,460 Descending FlightAware UK
01:28AM 55.7746 -5.9538 110° East 476 548 35,500 4,260 Level FlightAware UK
01:28AM 55.7950 -5.9610 110° East 480 552 37,000  Climbing FlightAware
01:29AM 55.7615 -5.8868 110° East 472 543 35,500 -2,760 Descending FlightAware UK
01:29AM 55.7485 -5.8198 109° East 474 545 35,500 3,000 Level FlightAware UK
01:29AM 55.7630 -5.7950 109° East 480 552 37,000  Climbing FlightAware
01:30AM 55.7269 -5.7083 109° East 476 548 35,500 -2,520 Descending FlightAware UK
01:30AM 55.7138 -5.6416 109° East 474 545 35,500 4,080 Level FlightAware UK
01:30AM 55.7330 -5.6430 109° East 479 551 37,000  Climbing FlightAware
01:30AM 55.7007 -5.5741 109° East 474 545 35,500  Descending FlightAware UK
01:30AM 55.7110 -5.5270 109° East 479 551 37,000  Climbing FlightAware
01:31AM 55.6837 -5.4859 109° East 476 548 35,500 -6,000 Descending FlightAware UK
01:31AM 55.6751 -5.4415 109° East 470 541 35,500  Level FlightAware UK
01:31AM 55.6622 -5.3747 109° East 472 543 35,500  Level FlightAware UK
01:31AM 55.6493 -5.3077 109° East 472 543 35,500 2,760 Level FlightAware UK
01:32AM 55.6650 -5.2870 109° East 482 555 37,000 -240 Climbing FlightAware
01:32AM 55.6277 -5.1952 109° East 472 543 35,400 -2,700 Descending FlightAware UK
01:32AM 55.6148 -5.1288 109° East 472 543 35,500 4,140 Climbing FlightAware UK
01:32AM 55.6350 -5.1320 109° East 485 558 37,000  Climbing FlightAware
01:33AM 55.5969 -5.0396 109° East 470 541 35,500  Descending FlightAware UK
01:33AM 55.5990 -4.9480 109° East 488 562 37,000  Climbing FlightAware
01:33AM 55.5656 -4.8829 109° East 480 552 35,500 -2,700 Descending FlightAware UK
01:34AM 55.5528 -4.8147 108° East 476 548 35,500 3,600 Level FlightAware UK
01:34AM 55.5700 -4.7990 108° East 484 557 37,000  Climbing FlightAware
01:34AM 55.5357 -4.7251 108° East 476 548 35,500 -2,520 Descending FlightAware UK
01:34AM 55.5228 -4.6581 109° East 476 548 35,500 3,300 Level FlightAware UK
01:34AM 55.5370 -4.6290 109° East 488 562 37,000  Climbing FlightAware
01:35AM 55.5051 -4.5687 109° East 482 555 35,500 -2,760 Descending FlightAware UK
01:35AM 55.4922 -4.5008 109° East 478 550 35,500 3,600 Level FlightAware UK
01:35AM 55.5080 -4.4780 109° East 486 559 37,000 -300 Climbing FlightAware
01:35AM 55.4747 -4.4127 109° East 474 545 35,400 -2,580 Descending FlightAware UK
01:36AM 55.4613 -4.3451 109° East 478 550 35,500 4,140 Climbing FlightAware UK
01:36AM 55.4790 -4.3320 109° East 482 555 37,000  Climbing FlightAware
01:36AM 55.4442 -4.2560 109° East 478 550 35,500 -2,460 Descending FlightAware UK
01:36AM 55.4301 -4.1898 111° Southeast 478 550 35,500 3,420 Level FlightAware UK
01:36AM 55.4440 -4.1590 111° Southeast 486 559 37,000  Climbing FlightAware
01:37AM 55.4105 -4.1021 111° Southeast 480 552 35,500 -2,700 Descending FlightAware UK
01:37AM 55.3954 -4.0359 112° Southeast 478 550 35,500 3,060 Level FlightAware UK
01:37AM 55.4080 -3.9990 112° Southeast 485 558 37,000  Climbing FlightAware
01:38AM 55.3665 -3.9059 112° Southeast 474 545 35,500  Descending FlightAware UK
01:38AM 55.3750 -3.8490 112° Southeast 483 556 37,000  Climbing FlightAware
01:38AM 55.3328 -3.7525 112° Southeast 470 541 35,500  Descending FlightAware UK
01:39AM 55.3430 -3.7050 112° Southeast 484 557 37,000 -240 Climbing FlightAware
01:39AM 55.3090 -3.6442 112° Southeast 468 539 35,400 -2,220 Descending FlightAware UK
01:39AM 55.2896 -3.5577 111° Southeast 468 539 35,500 3,420 Climbing FlightAware UK
01:39AM 55.3070 -3.5410 111° Southeast 483 556 37,000  Climbing FlightAware
01:40AM 55.2700 -3.4704 111° Southeast 468 539 35,500  Descending FlightAware UK
01:40AM 55.2740 -3.3970 111° Southeast 485 558 37,000  Climbing FlightAware
01:40AM 55.2405 -3.3401 111° Southeast 476 548 35,500  Descending FlightAware UK
01:40AM 55.2490 -3.2850 111° Southeast 485 558 37,000  Climbing FlightAware
01:41AM 55.2162 -3.2312 111° Southeast 472 543 35,500 -2,700 Descending FlightAware UK
01:41AM 55.2011 -3.1662 112° Southeast 470 541 35,500 3,060 Level FlightAware UK
01:41AM 55.2120 -3.1220 112° Southeast 486 559 37,000  Climbing FlightAware
01:42AM 55.1761 -3.0569 112° Southeast 474 545 35,500  Descending FlightAware UK
01:42AM 55.1780 -2.9760 112° Southeast 484 557 37,000  Climbing FlightAware
01:42AM 55.1361 -2.8834 112° Southeast 476 548 35,500  Descending FlightAware UK
01:43AM 55.1440 -2.8310 112° Southeast 484 557 37,000  Climbing FlightAware
01:43AM 55.1106 -2.7744 112° Southeast 478 550 35,500 -2,580 Descending FlightAware UK
01:43AM 55.0953 -2.7094 112° Southeast 478 550 35,500 3,180 Level FlightAware UK
01:43AM 55.1060 -2.6660 112° Southeast 487 560 37,000  Climbing FlightAware
01:44AM 55.0750 -2.6219 112° Southeast 480 552 35,500 -2,940 Descending FlightAware UK
01:44AM 55.0599 -2.5567 112° Southeast 478 550 35,400 4,500 Descending FlightAware UK
01:44AM 55.0760 -2.5400 112° Southeast 485 558 37,000 300 Climbing FlightAware
01:44AM 55.0447 -2.4924 112° Southeast 480 552 35,500 -2,760 Descending FlightAware UK
01:44AM 55.0294 -2.4271 112° Southeast 482 555 35,500 3,000 Level FlightAware UK
01:45AM 55.0370 -2.3770 112° Southeast 486 559 37,000  Climbing FlightAware
01:45AM 55.0034 -2.3181 112° Southeast 476 548 35,500  Descending FlightAware UK
01:45AM 55.0070 -2.2500 112° Southeast 486 559 37,000 -180 Climbing FlightAware
01:46AM 54.9726 -2.1881 112° Southeast 474 545 35,400 -2,400 Descending FlightAware UK
01:46AM 54.9572 -2.1231 112° Southeast 480 552 35,500 3,180 Climbing FlightAware UK
01:46AM 54.9630 -2.0680 112° Southeast 491 565 37,000  Climbing FlightAware
01:47AM 54.9207 -1.9715 112° Southeast 480 552 35,500  Descending FlightAware UK
01:47AM 54.9260 -1.9150 112° Southeast 491 565 37,000  Climbing FlightAware
01:47AM 54.8945 -1.8623 112° Southeast 476 548 35,500 -2,760 Descending FlightAware UK
01:47AM 54.8785 -1.7974 113° Southeast 480 552 35,500 3,600 Level FlightAware UK
01:47AM 54.8890 -1.7620 113° Southeast 492 566 37,000  Climbing FlightAware
01:48AM 54.8469 -1.6673 113° Southeast 482 555 35,500  Descending FlightAware UK
01:48AM 54.8540 -1.6220 113° Southeast 492 566 37,000  Climbing FlightAware
01:49AM 54.8149 -1.5368 113° Southeast 480 552 35,500  Descending FlightAware UK
01:49AM 54.8130 -1.4560 113° Southeast 490 564 37,000  Climbing FlightAware
01:49AM 54.7723 -1.3646 113° Southeast 482 555 35,500  Descending FlightAware UK
01:50AM 54.7760 -1.3070 113° Southeast 491 565 37,000  Climbing FlightAware
01:50AM 54.7453 -1.2573 113° Southeast 482 555 35,500  Descending FlightAware UK
01:50AM 54.7360 -1.1520 113° Southeast 491 565 37,000  Climbing FlightAware
01:51AM 54.7076 -1.1071 113° Southeast 478 550 35,500  Descending FlightAware UK
01:51AM 54.6980 -1.0030 113° Southeast 491 565 37,000  Climbing FlightAware
01:51AM 54.6693 -0.9566 113° Southeast 480 552 35,500  Descending FlightAware UK
01:52AM 54.6610 -0.8600 113° Southeast 491 565 37,000  Climbing FlightAware
01:52AM 54.6309 -0.8064 113° Southeast 478 550 35,500 -2,460 Descending FlightAware UK
01:52AM 54.6143 -0.7425 114° Southeast 478 550 35,500 3,420 Level FlightAware UK
01:52AM 54.6200 -0.7030 114° Southeast 491 565 37,000  Climbing FlightAware
01:53AM 54.5924 -0.6580 114° Southeast 482 555 35,500 -2,700 Descending FlightAware UK
01:53AM 54.5758 -0.5934 114° Southeast 484 557 35,500 3,720 Level FlightAware UK
01:53AM 54.5820 -0.5560 114° Southeast 491 565 37,000  Climbing FlightAware
01:53AM 54.5483 -0.4869 114° Southeast 484 557 35,500  Descending FlightAware UK
01:54AM 54.5410 -0.3990 114° Southeast 489 563 37,000  Climbing FlightAware
01:54AM 54.5154 -0.3596 114° Southeast 482 555 35,500  Descending FlightAware UK
01:54AM 54.5050 -0.2610 114° Southeast 487 560 37,000  Climbing FlightAware
01:55AM 54.4715 -0.1897 114° Southeast 482 555 35,500  Descending FlightAware UK
01:55AM 54.4630 -0.1020 114° Southeast 487 560 37,000  Climbing FlightAware
01:55AM 54.4382 -0.0628 114° Southeast 482 555 35,500  Descending FlightAware UK
01:56AM 54.4240 0.0450 114° Southeast 486 559 37,000  Climbing FlightAware
01:56AM 54.3936 0.1048 114° Southeast 480 552 35,500  Descending FlightAware UK
01:56AM 54.3920 0.1640 114° Southeast 486 559 37,000  Climbing FlightAware
01:57AM 54.3658 0.2094 114° Southeast 482 555 35,500 -2,520 Descending FlightAware UK
01:57AM 54.3490 0.2721 115° Southeast 482 555 35,500 2,760 Level FlightAware UK
01:57AM 54.3440 0.3380 115° Southeast 484 557 37,000  Climbing FlightAware
01:58AM 54.3207 0.3770 115° Southeast 480 552 35,500 -2,700 Descending FlightAware UK
01:58AM 54.3042 0.4387 115° Southeast 476 548 35,500 3,720 Level FlightAware UK
01:58AM 54.3070 0.4780 115° Southeast 484 557 37,000  Climbing FlightAware
01:58AM 54.2818 0.5219 115° Southeast 476 548 35,500  Descending FlightAware UK
01:59AM 54.2690 0.6160 115° Southeast 484 557 37,000  Climbing FlightAware
01:59AM 54.2368 0.6886 115° Southeast 474 545 35,500  Descending FlightAware UK
01:59AM 54.2250 0.7750 115° Southeast 483 556 37,000  Climbing FlightAware
02:00AM 54.2027 0.8134 115° Southeast 474 545 35,500 -2,580 Descending FlightAware UK
02:00AM 54.1859 0.8747 115° Southeast 474 545 35,500 3,900 Level FlightAware UK
02:00AM 54.1880 0.9090 115° Southeast 484 557 37,000  Climbing FlightAware
02:00AM 54.1630 0.9573 115° Southeast 474 545 35,500 -2,460 Descending FlightAware UK
02:01AM 54.1457 1.0202 115° Southeast 474 545 35,500 4,260 Level FlightAware UK
02:01AM 54.1520 1.0380 115° Southeast 485 558 37,000  Climbing FlightAware
02:01AM 54.1286 1.0823 115° Southeast 474 545 35,500 -2,340 Descending FlightAware UK
02:01AM 54.1054 1.1659 115° Southeast 474 545 35,500 3,000 Level FlightAware UK
02:01AM 54.1090 1.1900 115° Southeast 487 560 37,000  Climbing FlightAware
02:02AM 54.0826 1.2481 115° Southeast 476 548 35,500 -2,520 Descending FlightAware UK
02:02AM 54.0650 1.3110 115° Southeast 478 550 35,500 3,300 Level FlightAware UK
02:02AM 54.0620 1.3580 115° Southeast 488 562 37,000  Climbing FlightAware
02:02AM 54.0416 1.3940 115° Southeast 482 555 35,500  Descending FlightAware UK
02:03AM 54.0290 1.4730 115° Southeast 488 562 37,000  Climbing FlightAware
02:03AM 54.0003 1.5398 115° Southeast 482 555 35,500  Descending FlightAware UK
02:04AM 53.9830 1.6350 115° Southeast 489 563 37,000  Climbing FlightAware
02:04AM 53.9533 1.7056 115° Southeast 480 552 35,500  Descending FlightAware UK
02:04AM 53.9390 1.7870 115° Southeast 489 563 37,000  Climbing FlightAware
02:05AM 53.9178 1.8305 115° Southeast 480 552 35,500 -2,580 Descending FlightAware UK
02:05AM 53.8999 1.8923 116° Southeast 484 557 35,500 4,980 Level FlightAware UK
02:05AM 53.9050 1.9060 116° Southeast 488 562 37,000  Climbing FlightAware
02:05AM 53.8822 1.9533 116° Southeast 484 557 35,500 -2,520 Descending FlightAware UK
02:05AM 53.8641 2.0157 116° Southeast 484 557 35,500 3,300 Level FlightAware UK
02:06AM 53.8590 2.0630 116° Southeast 487 560 37,000  Climbing FlightAware
02:06AM 53.8400 2.0986 116° Southeast 486 559 35,500 -2,340 Descending FlightAware UK
02:06AM 53.8161 2.1804 116° Southeast 482 555 35,500 3,000 Level FlightAware UK
02:06AM 53.8160 2.2090 116° Southeast 486 559 37,000  Climbing FlightAware
02:07AM 53.7924 2.2614 116° Southeast 482 555 35,500 -2,520 Descending FlightAware UK
02:07AM 53.7744 2.3234 116° Southeast 486 559 35,500 4,080 Level FlightAware UK
02:07AM 53.7760 2.3460 116° Southeast 485 558 37,000  Climbing FlightAware
02:07AM 53.7445 2.4250 116° Southeast 486 559 35,500  Descending FlightAware UK
02:08AM 53.7300 2.5020 116° Southeast 482 555 37,000  Climbing FlightAware
02:08AM 53.7024 2.5673 116° Southeast 484 557 35,500  Descending FlightAware UK
02:08AM 53.6890 2.6370 116° Southeast 482 555 37,000  Climbing FlightAware
02:09AM 53.6546 2.7284 116° Southeast 484 557 35,500  Descending FlightAware UK
02:09AM 53.6540 2.7570 116° Southeast 480 552 37,000  Climbing FlightAware
02:09AM 53.6309 2.8088 116° Southeast 482 555 35,500  Descending FlightAware UK
02:10AM 53.6110 2.9010 116° Southeast 478 550 37,000  Climbing FlightAware
02:10AM 53.5891 2.9486 116° Southeast 480 552 35,500  Descending FlightAware UK
02:11AM 53.5690 3.0400 116° Southeast 472 543 37,000  Climbing FlightAware
02:11AM 53.5411 3.1077 116° Southeast 478 550 35,500 -2,340 Descending FlightAware UK
02:11AM 53.5229 3.1675 117° Southeast 478 550 35,500 4,500 Level FlightAware UK
02:11AM 53.5270 3.1760 117° Southeast 470 541 37,000  Climbing FlightAware
02:12AM 53.4813 3.3052 117° Southeast 474 545 35,500  Descending FlightAware UK
02:12AM 53.4500 3.4280 117° Southeast 473 544 37,000  Climbing FlightAware
02:13AM 53.4274 3.4815 117° Southeast 470 541 35,500  Descending FlightAware UK
02:13AM 53.4100 3.5550 117° Southeast 471 542 37,000  Climbing FlightAware
02:13AM 53.3791 3.6125 117° Southeast 474 545 35,500  Descending FlightAware UK
02:14AM 53.3600 3.6740 117° Southeast 468 539 37,000  Climbing FlightAware
02:14AM 53.3231 3.7325 117° Southeast 478 550 35,500 -2,160 Descending FlightAware UK
02:14AM 53.2989 3.7828 129° Southeast 478 550 35,500 4,260 Level FlightAware UK
02:15AM 53.2970 3.8060 129° Southeast 467 537 37,000  Climbing FlightAware
02:15AM 53.2741 3.8341 129° Southeast 480 552 35,500  Descending FlightAware UK
02:15AM 53.2460 3.9100 129° Southeast 466 536 37,000  Climbing FlightAware
02:16AM 53.1925 4.0027 129° Southeast 478 550 35,500  Descending FlightAware UK
02:16AM 53.1840 4.0390 129° Southeast 465 535 37,000  Climbing FlightAware
02:16AM 53.1437 4.1037 129° Southeast 478 550 35,500  Descending FlightAware UK
02:17AM 53.1290 4.1530 129° Southeast 465 535 37,000  Climbing FlightAware
02:17AM 53.0948 4.2045 129° Southeast 480 552 35,500  Descending FlightAware UK
02:17AM 53.0700 4.2750 129° Southeast 464 534 37,000  Climbing FlightAware
02:18AM 53.0220 4.3551 129° Southeast 484 557 35,500  Descending FlightAware UK
02:18AM 53.0140 4.3890 129° Southeast 463 533 37,000  Climbing FlightAware
02:19AM 52.9646 4.4709 129° Southeast 480 552 35,500  Descending FlightAware UK
02:19AM 52.9610 4.4970 129° Southeast 461 531 37,000 1,860 Climbing FlightAware
02:19AM 52.9080 4.6050 129° Southeast 461 531 37,000 -1,440 Level FlightAware
02:20AM 52.8674 4.6686 129° Southeast 476 548 35,500  Descending FlightAware UK
02:20AM 52.8500 4.7230 129° Southeast 460 529 37,000  Climbing FlightAware
02:20AM 52.8105 4.7839 129° Southeast 476 548 35,500 -2,280 Descending FlightAware UK
02:21AM 52.7867 4.8334 128° Southeast 474 545 35,500 3,900 Level FlightAware UK
02:21AM 52.7890 4.8460 128° Southeast 459 528 37,000  Climbing FlightAware
02:21AM 52.7542 4.8990 128° Southeast 476 548 35,500 -2,460 Descending FlightAware UK
02:21AM 52.7300 4.9481 129° Southeast 478 550 35,500 4,260 Level FlightAware UK
02:22AM 52.7320 4.9600 129° Southeast 459 528 37,000 2,040 Climbing FlightAware
02:22AM 52.6790 5.0680 129° Southeast 458 527 37,000  Level FlightAware
02:23AM 52.6230 5.1780 130° Southeast 456 525 37,000  Level FlightAware
02:24AM 52.5630 5.2780 135° Southeast 451 519 37,000  Level FlightAware
02:24AM 52.4930 5.3840 137° Southeast 450 518 37,000 -1,200 Level FlightAware
02:25AM 52.4304 5.4582 137° Southeast 474 545 35,500  Descending FlightAware UK
02:25AM 52.4300 5.4790 137° Southeast 451 519 37,000 1,620 Climbing FlightAware
02:26AM 52.3630 5.5800 137° Southeast 451 519 37,000 -1,320 Level FlightAware
02:26AM 52.3103 5.6392 137° Southeast 474 545 35,500  Descending FlightAware UK
02:26AM 52.3050 5.6670 137° Southeast 451 519 37,000  Climbing FlightAware
02:27AM 52.2453 5.7372 137° Southeast 474 545 35,500  Descending FlightAware UK
02:27AM 52.2370 5.7680 137° Southeast 452 520 37,000  Climbing FlightAware
02:27AM 52.1988 5.8064 137° Southeast 472 543 35,500  Descending FlightAware UK
02:28AM 52.1710 5.8660 137° Southeast 452 520 37,000 1,260 Climbing FlightAware
02:29AM 52.1080 5.9590 138° Southeast 452 520 37,000  Level FlightAware
02:29AM 52.0470 6.0510 137° Southeast 452 520 37,000  Level FlightAware
02:30AM 51.9770 6.1540 138° Southeast 452 520 37,000  Level FlightAware
02:31AM 51.9160 6.2440 138° Southeast 452 520 37,000  Level FlightAware
02:31AM 51.8470 6.3460 138° Southeast 452 520 37,000  Level FlightAware
02:32AM 51.7850 6.4360 138° Southeast 453 521 37,000  Level FlightAware
02:33AM 51.7140 6.5400 138° Southeast 453 521 37,000  Level FlightAware
02:33AM 51.6520 6.6300 138° Southeast 453 521 37,000  Level FlightAware
02:34AM 51.5860 6.7240 138° Southeast 453 521 37,000  Level FlightAware
02:35AM 51.5220 6.8170 138° Southeast 454 522 37,000  Level FlightAware
02:36AM 51.4600 6.9060 138° Southeast 455 524 37,000  Level FlightAware
02:36AM 51.3940 6.9990 139° Southeast 456 525 37,000  Level FlightAware
02:37AM 51.3230 7.1010 138° Southeast 458 527 37,000  Level FlightAware
02:38AM 51.2590 7.1920 138° Southeast 458 527 37,000  Level FlightAware
02:38AM 51.1970 7.2800 138° Southeast 459 528 37,000  Level FlightAware
02:39AM 51.1270 7.3780 139° Southeast 459 528 37,000  Level FlightAware
02:40AM 51.0620 7.4710 138° Southeast 459 528 37,000  Level FlightAware
02:40AM 51.0030 7.5520 139° Southeast 457 526 37,000  Level FlightAware
02:41AM 50.9310 7.6530 139° Southeast 456 525 37,000  Level FlightAware
02:42AM 50.8690 7.7400 138° Southeast 454 522 37,000  Level FlightAware
02:42AM 50.8080 7.8230 139° Southeast 453 521 37,000  Level FlightAware
02:43AM 50.7110 7.9580 139° Southeast 452 520 37,000  Level FlightAware
02:44AM 50.6550 8.0350 139° Southeast 452 520 37,000  Level FlightAware
02:45AM 50.5790 8.1380 139° Southeast 452 520 37,000 -120 Level FlightAware
02:46AM 50.5000 8.2460 139° Southeast 454 522 36,900 -660 Descending FlightAware
02:46AM 50.4340 8.3350 139° Southeast 446 513 36,100 -720 Descending FlightAware
02:47AM 50.3740 8.4160 139° Southeast 426 490 36,000 -120 Descending FlightAware
02:48AM 50.3070 8.5060 139° Southeast 430 495 36,000  Level FlightAware
02:48AM 50.2480 8.5840 140° Southeast 436 502 36,000  Level FlightAware
02:49AM 50.1770 8.6790 139° Southeast 442 509 36,000 -180 Level FlightAware
02:50AM 50.1160 8.7600 140° Southeast 451 519 35,800 -720 Descending FlightAware
02:50AM 50.0500 8.8490 139° Southeast 452 520 35,100 -600 Descending FlightAware
02:51AM 49.9830 8.9460 137° Southeast 446 513 35,000 -120 Descending FlightAware
02:52AM 49.9220 9.0340 137° Southeast 451 519 35,000  Level FlightAware
02:53AM 49.8630 9.1160 138° Southeast 454 522 35,000  Level FlightAware
02:53AM 49.7890 9.2200 138° Southeast 457 526 35,000  Level FlightAware
02:54AM 49.7250 9.3090 138° Southeast 460 529 35,000  Level FlightAware
02:55AM 49.6810 9.3700 138° Southeast 462 532 35,000 -1,620 Level FlightAware
02:57AM 49.5208 9.6737 129° Southeast  Level Estimated
02:58AM 49.4354 9.8341 129° Southeast  Level Estimated
02:59AM 49.3498 9.9940 129° Southeast  Level Estimated
03:00AM 49.2639 10.1533 130° Southeast  Level Estimated
03:00AM 49.2540 10.1040 130° Southeast 426 490 25,700  Level FlightAware
03:01AM 49.1910 10.2090 133° Southeast 430 495 24,900 -1,440 Descending FlightAware
03:01AM 49.1330 10.3050 133° Southeast 425 489 23,700 -2,100 Descending FlightAware
03:02AM 49.0810 10.3880 134° Southeast 413 475 22,100 -2,340 Descending FlightAware
03:03AM 49.0280 10.4720 134° Southeast 411 473 20,600 -2,160 Descending FlightAware
03:03AM 48.9690 10.5670 133° Southeast 401 461 19,100 -1,980 Descending FlightAware
03:04AM 48.9240 10.6380 134° Southeast 400 460 17,800 -1,980 Descending FlightAware
03:05AM 48.8630 10.7350 134° Southeast 396 456 16,300 -1,380 Descending FlightAware
03:05AM 48.8150 10.8110 134° Southeast 393 452 15,900 -300 Descending FlightAware
03:06AM 48.7720 10.8790 134° Southeast 393 452 15,900 -2,640 Level FlightAware
03:06AM 48.7550 10.9360 114° Southeast 13,200 -4,980 Descending FlightAware
03:07AM 48.7300 11.0120 116° Southeast 385 443 12,200 -2,100 Descending FlightAware
03:07AM 48.6970 11.1050 118° Southeast 368 423 11,100 -900 Descending FlightAware
03:08AM 48.6570 11.2070 121° Southeast 361 415 11,000 -120 Descending FlightAware
03:09AM 48.6300 11.2780 120° Southeast 333 383 11,000 -540 Level FlightAware
03:10AM 48.5970 11.3690 119° Southeast 302 348 10,300 -960 Descending FlightAware
03:10AM 48.5820 11.4090 120° Southeast 295 339 9,900 -1,200 Descending FlightAware
03:10AM 48.5670 11.4510 118° Southeast 291 335 9,400 -1,080 Descending FlightAware
03:11AM 48.5590 11.5110 101° East 290 334 9,000 -480 Descending FlightAware
03:11AM 48.5550 11.5600 97° East 292 336 9,000  Level FlightAware
03:12AM 48.5510 11.6220 96° East 291 335 9,000  Level FlightAware
03:12AM 48.5490 11.6540 95° East 290 334 9,000  Level FlightAware
03:12AM 48.5450 11.7050 97° East 291 335 9,000 -660 Level FlightAware
03:13AM 48.5420 11.7660 94° East 287 330 8,400 -1,140 Descending FlightAware
03:13AM 48.5390 11.8140 95° East 282 325 8,000 -1,140 Descending FlightAware
03:14AM 48.5340 11.8730 97° East 276 318 7,400 -1,320 Descending FlightAware
03:14AM 48.5310 11.9220 95° East 275 316 6,800 -1,440 Descending FlightAware
03:15AM 48.5260 11.9770 98° East 272 313 6,100 -1,440 Descending FlightAware
03:15AM 48.5170 12.0130 111° Southeast 275 316 5,600 -840 Descending FlightAware
03:16AM 48.5000 12.0830 110° East 249 287 5,300 -300 Descending FlightAware
03:16AM 48.4900 12.1230 111° Southeast 246 283 5,300  Level FlightAware
03:16AM 48.4810 12.1450 122° Southeast 242 278 5,300  Level FlightAware
03:17AM 48.4710 12.1540 149° Southeast 240 276 5,300  Level FlightAware
03:17AM 48.4390 12.1640 168° South 233 268 5,300  Level FlightAware
03:18AM 48.4070 12.1560 189° South 234 269 5,300  Level FlightAware
03:18AM 48.3910 12.1260 231° Southwest 206 237 5,300 -180 Level FlightAware
03:18AM 48.3890 12.1070 261° West 194 223 5,200 -780 Descending FlightAware
03:19AM 48.3860 12.0540 265° West 190 219 4,600 -1,080 Descending FlightAware
03:19AM 48.3820 12.0140 261° West 190 219 4,000 -1,140 Descending FlightAware
03:20AM 48.3790 11.9820 262° West 185 213 3,600 -1,020 Descending FlightAware
03:20AM 48.3760 11.9440 263° West 172 198 3,100 -900 Descending FlightAware
03:21AM 48.3730 11.9110 262° West 154 177 2,700 -840 Descending FlightAware
03:21AM 48.3710 11.8900 262° West 146 168 2,400 -780 Descending FlightAware
03:22AM 48.3670 11.8540 261° West 147 169 2,000 -720 Descending FlightAware